Saturday, November 18, 2017, 6:20 PM EST
Back to Local

KAFN, Jaffrey Muni-silver Ranch

Location: Jaffrey, NH, United States Lat: 42.8
Local Time: 6:20 PM EST (23:20 GMT) Lon: -72
Time Zone: US/Eastern Elev: 1040 ft

Show me the last for .
Show Coded

Time T Td Feel RH Dir Speed Gust Alt SLP Vis Weather Sky Remarks
2017-11-18 17:52 37 36 - 95 - Calm - 29.64 29.69 10 BKN022 OVC047 1-hr Precip Total: Trace
2017-11-18 17:23 37 35 - 92 - Calm - 29.65 - 10 -RA BKN022 BKN037 OVC048 1-hr Precip Total: Trace
2017-11-18 16:52 38 34 - 85 - Calm - 29.66 29.71 10 -RA BKN036 OVC047 1-hr Precip Total: Trace
2017-11-18 15:52 38 32 - 78 - Calm - 29.68 29.73 10 -RA OVC060 1-hr Precip Total: Trace
6-hr Precip Total (4pm): 0.00"
2017-11-18 14:52 40 27 34 59 200° 8 - 29.70 29.74 10 OVC095 None
2017-11-18 13:52 39 22 33 49 200° 9 - 29.73 29.78 10 BKN120 None
2017-11-18 12:52 39 21 33 48 200° 9 - 29.76 29.80 10 BKN085 OVC110 6-hr Min Temp (1pm): 21.9°F
6-hr Max Temp (1pm): 39.0°F
2017-11-18 11:52 39 18 35 42 Variable 6 - 29.80 29.84 10 CLR None
2017-11-18 10:52 36 17 31 45 220° 6 - 29.84 29.89 10 CLR None
2017-11-18 09:52 34 16 31 47 220° 3 - 29.87 29.92 10 CLR None
2017-11-18 08:52 31 17 - 55 - Calm - 29.90 29.95 10 CLR None
2017-11-18 07:52 27 19 23 71 200° 3 - 29.92 29.97 10 CLR None
2017-11-18 06:52 22 18 16 84 170° 5 - 29.94 29.99 10 CLR 6-hr Min Temp (7am): 21.9°F
6-hr Max Temp (7am): 28.0°F
2017-11-18 05:52 22 18 - 84 - Calm - 29.92 29.98 10 CLR None
2017-11-18 04:52 22 19 - 88 - Calm - 29.93 29.98 10 CLR None
2017-11-18 03:52 23 18 - 80 - Calm - 29.93 29.98 10 CLR None
2017-11-18 02:52 24 17 - 74 - Calm - 29.92 29.97 10 CLR None
2017-11-18 01:52 24 17 - 74 - Calm - 29.95 30.00 10 CLR None
2017-11-18 00:52 28 14 - 55 - Calm - 29.95 30.00 10 CLR 6-hr Min Temp (1am): 26.1°F
6-hr Max Temp (1am): 35.1°F
2017-11-17 23:52 26 16 - 65 - Calm - 29.96 30.01 10 CLR 24-hr Min Temp (12am): 26.1°F
24-hr Max Temp (12am): 39.0°F
2017-11-17 22:52 30 14 - 50 - Calm - 29.96 30.01 10 CLR None
2017-11-17 21:52 30 15 - 53 - Calm - 29.96 30.01 10 CLR None
2017-11-17 20:52 32 13 26 44 130° 6 - 29.96 30.00 10 CLR None
2017-11-17 19:52 35 11 28 36 310° 9 - 29.96 30.01 10 CLR None
2017-11-17 18:52 34 14 29 43 Variable 6 - 29.95 30.00 10 CLR 6-hr Min Temp (7pm): 34.0°F
6-hr Max Temp (7pm): 37.9°F

Support USWX by starting your Amazon purchase here.